sensor_id;sensor_type;location;lat;lon;timestamp;pressure;altitude;pressure_sealevel;temperature
77331;BMP280;66405;48.328;7.820;2023-04-02T00:00:32;99194.47;;;9.77
77331;BMP280;66405;48.328;7.820;2023-04-02T00:07:59;99212.94;;;9.78
77331;BMP280;66405;48.328;7.820;2023-04-02T00:13:04;99207.19;;;9.85
77331;BMP280;66405;48.328;7.820;2023-04-02T00:15:31;99209.00;;;9.89
77331;BMP280;66405;48.328;7.820;2023-04-02T00:17:58;99217.38;;;9.91
77331;BMP280;66405;48.328;7.820;2023-04-02T00:20:25;99212.25;;;9.93
77331;BMP280;66405;48.328;7.820;2023-04-02T00:22:53;99214.50;;;9.94
77331;BMP280;66405;48.328;7.820;2023-04-02T00:25:21;99216.78;;;9.96
77331;BMP280;66405;48.328;7.820;2023-04-02T00:27:48;99220.22;;;9.96
77331;BMP280;66405;48.328;7.820;2023-04-02T00:30:14;99219.78;;;9.98
77331;BMP280;66405;48.328;7.820;2023-04-02T00:32:42;99216.63;;;9.99
77331;BMP280;66405;48.328;7.820;2023-04-02T00:35:18;99219.59;;;10.01
77331;BMP280;66405;48.328;7.820;2023-04-02T00:37:45;99214.94;;;10.02
77331;BMP280;66405;48.328;7.820;2023-04-02T00:40:29;99215.69;;;10.02
77331;BMP280;66405;48.328;7.820;2023-04-02T00:42:59;99214.03;;;10.05
77331;BMP280;66405;48.328;7.820;2023-04-02T00:45:31;99213.28;;;10.05
77331;BMP280;66405;48.328;7.820;2023-04-02T00:48:15;99205.94;;;10.05
77331;BMP280;66405;48.328;7.820;2023-04-02T00:50:46;99207.44;;;10.06
77331;BMP280;66405;48.328;7.820;2023-04-02T00:53:23;99206.69;;;10.06
77331;BMP280;66405;48.328;7.820;2023-04-02T00:55:50;99203.56;;;10.07
77331;BMP280;66405;48.328;7.820;2023-04-02T00:58:33;99211.66;;;10.07
77331;BMP280;66405;48.328;7.820;2023-04-02T01:01:00;99214.34;;;10.07
77331;BMP280;66405;48.328;7.820;2023-04-02T01:06:08;99211.19;;;10.09
77331;BMP280;66405;48.328;7.820;2023-04-02T01:08:48;99209.19;;;10.09
77331;BMP280;66405;48.328;7.820;2023-04-02T01:22:26;99224.81;;;10.14
77331;BMP280;66405;48.328;7.820;2023-04-02T01:24:57;99220.59;;;10.13
77331;BMP280;66405;48.328;7.820;2023-04-02T01:27:28;99223.31;;;10.13
77331;BMP280;66405;48.328;7.820;2023-04-02T01:29:59;99224.34;;;10.16
77331;BMP280;66405;48.328;7.820;2023-04-02T01:32:28;99226.31;;;10.15
77331;BMP280;66405;48.328;7.820;2023-04-02T01:34:56;99222.84;;;10.15
77331;BMP280;66405;48.328;7.820;2023-04-02T01:37:54;99224.81;;;10.14
77331;BMP280;66405;48.328;7.820;2023-04-02T01:40:39;99229.75;;;10.16
77331;BMP280;66405;48.328;7.820;2023-04-02T01:45:37;99224.34;;;10.16
77331;BMP280;66405;48.328;7.820;2023-04-02T01:48:15;99230.50;;;10.16
77331;BMP280;66405;48.328;7.820;2023-04-02T01:50:43;99229.75;;;10.16
77331;BMP280;66405;48.328;7.820;2023-04-02T01:53:15;99231.25;;;10.17
77331;BMP280;66405;48.328;7.820;2023-04-02T01:58:12;99233.94;;;10.17
77331;BMP280;66405;48.328;7.820;2023-04-02T02:03:32;99238.88;;;10.18
77331;BMP280;66405;48.328;7.820;2023-04-02T02:06:02;99239.63;;;10.19
77331;BMP280;66405;48.328;7.820;2023-04-02T02:08:50;99239.16;;;10.21
77331;BMP280;66405;48.328;7.820;2023-04-02T02:11:21;99235.72;;;10.20
77331;BMP280;66405;48.328;7.820;2023-04-02T02:13:59;99249.53;;;10.22
77331;BMP280;66405;48.328;7.820;2023-04-02T02:16:28;99247.09;;;10.24
77331;BMP280;66405;48.328;7.820;2023-04-02T02:19:03;99249.38;;;10.26
77331;BMP280;66405;48.328;7.820;2023-04-02T02:21:40;99254.47;;;10.24
77331;BMP280;66405;48.328;7.820;2023-04-02T02:24:23;99254.47;;;10.24
77331;BMP280;66405;48.328;7.820;2023-04-02T02:29:36;99261.38;;;10.25
77331;BMP280;66405;48.328;7.820;2023-04-02T02:32:06;99257.91;;;10.24
77331;BMP280;66405;48.328;7.820;2023-04-02T02:34:39;99264.06;;;10.25
77331;BMP280;66405;48.328;7.820;2023-04-02T02:37:14;99267.97;;;10.24
77331;BMP280;66405;48.328;7.820;2023-04-02T02:39:44;99266.47;;;10.23
77331;BMP280;66405;48.328;7.820;2023-04-02T02:44:53;99272.59;;;10.23
77331;BMP280;66405;48.328;7.820;2023-04-02T02:47:28;99267.66;;;10.22
77331;BMP280;66405;48.328;7.820;2023-04-02T02:50:01;99269.63;;;10.21
77331;BMP280;66405;48.328;7.820;2023-04-02T02:52:34;99277.72;;;10.21
77331;BMP280;66405;48.328;7.820;2023-04-02T02:55:16;99281.94;;;10.22
77331;BMP280;66405;48.328;7.820;2023-04-02T02:57:55;99275.47;;;10.19
77331;BMP280;66405;48.328;7.820;2023-04-02T03:00:25;99282.06;;;10.18
77331;BMP280;66405;48.328;7.820;2023-04-02T03:02:53;99289.44;;;10.18
77331;BMP280;66405;48.328;7.820;2023-04-02T03:05:25;99289.44;;;10.18
77331;BMP280;66405;48.328;7.820;2023-04-02T03:07:56;99285.72;;;10.15
77331;BMP280;66405;48.328;7.820;2023-04-02T03:10:33;99289.16;;;10.16
77331;BMP280;66405;48.328;7.820;2023-04-02T03:16:02;99296.50;;;10.15
77331;BMP280;66405;48.328;7.820;2023-04-02T03:18:48;99293.81;;;10.15
77331;BMP280;66405;48.328;7.820;2023-04-02T03:27:04;99311.22;;;10.14
77331;BMP280;66405;48.328;7.820;2023-04-02T03:29:40;99307.00;;;10.13
77331;BMP280;66405;48.328;7.820;2023-04-02T03:32:31;99312.41;;;10.13
77331;BMP280;66405;48.328;7.820;2023-04-02T03:35:02;99319.31;;;10.14
77331;BMP280;66405;48.328;7.820;2023-04-02T03:37:37;99315.84;;;10.14
77331;BMP280;66405;48.328;7.820;2023-04-02T03:40:25;99317.06;;;10.13
77331;BMP280;66405;48.328;7.820;2023-04-02T03:43:12;99321.25;;;10.14
77331;BMP280;66405;48.328;7.820;2023-04-02T03:45:45;99323.94;;;10.14
77331;BMP280;66405;48.328;7.820;2023-04-02T03:48:14;99323.94;;;10.14
77331;BMP280;66405;48.328;7.820;2023-04-02T03:50:55;99326.22;;;10.15
77331;BMP280;66405;48.328;7.820;2023-04-02T03:53:24;99331.59;;;10.15
77331;BMP280;66405;48.328;7.820;2023-04-02T03:55:51;99335.03;;;10.16
77331;BMP280;66405;48.328;7.820;2023-04-02T03:58:27;99336.56;;;10.17
77331;BMP280;66405;48.328;7.820;2023-04-02T04:01:25;99336.56;;;10.17
77331;BMP280;66405;48.328;7.820;2023-04-02T04:03:54;99338.06;;;10.18
77331;BMP280;66405;48.328;7.820;2023-04-02T04:06:36;99347.63;;;10.19
77331;BMP280;66405;48.328;7.820;2023-04-02T04:09:11;99339.53;;;10.19
77331;BMP280;66405;48.328;7.820;2023-04-02T04:11:47;99345.66;;;10.19
77331;BMP280;66405;48.328;7.820;2023-04-02T04:14:20;99338.34;;;10.20
77331;BMP280;66405;48.328;7.820;2023-04-02T04:17:17;99343.72;;;10.20
77331;BMP280;66405;48.328;7.820;2023-04-02T04:19:53;99346.44;;;10.20
77331;BMP280;66405;48.328;7.820;2023-04-02T04:22:25;99353.78;;;10.19
77331;BMP280;66405;48.328;7.820;2023-04-02T04:25:28;99363.38;;;10.21
77331;BMP280;66405;48.328;7.820;2023-04-02T04:33:21;99362.63;;;10.20
77331;BMP280;66405;48.328;7.820;2023-04-02T04:35:55;99367.28;;;10.19
77331;BMP280;66405;48.328;7.820;2023-04-02T04:38:34;99369.97;;;10.19
77331;BMP280;66405;48.328;7.820;2023-04-02T04:41:17;99371.94;;;10.19
77331;BMP280;66405;48.328;7.820;2023-04-02T04:49:13;99383.47;;;10.19
77331;BMP280;66405;48.328;7.820;2023-04-02T04:54:17;99384.97;;;10.21
77331;BMP280;66405;48.328;7.820;2023-04-02T04:56:50;99392.34;;;10.20
77331;BMP280;66405;48.328;7.820;2023-04-02T04:59:24;99388.13;;;10.19
77331;BMP280;66405;48.328;7.820;2023-04-02T05:02:10;99390.56;;;10.17
77331;BMP280;66405;48.328;7.820;2023-04-02T05:04:43;99399.09;;;10.15
77331;BMP280;66405;48.328;7.820;2023-04-02T05:10:01;99402.25;;;10.14
77331;BMP280;66405;48.328;7.820;2023-04-02T05:21:25;99408.97;;;10.09
77331;BMP280;66405;48.328;7.820;2023-04-02T05:29:23;99422.47;;;10.09
77331;BMP280;66405;48.328;7.820;2023-04-02T05:31:59;99421.75;;;10.09
77331;BMP280;66405;48.328;7.820;2023-04-02T05:34:29;99419.06;;;10.09
77331;BMP280;66405;48.328;7.820;2023-04-02T05:36:58;99427.16;;;10.09
77331;BMP280;66405;48.328;7.820;2023-04-02T05:39:26;99425.19;;;10.09
77331;BMP280;66405;48.328;7.820;2023-04-02T05:42:06;99428.94;;;10.12
77331;BMP280;66405;48.328;7.820;2023-04-02T05:45:29;99433.16;;;10.13
77331;BMP280;66405;48.328;7.820;2023-04-02T05:48:02;99435.84;;;10.13
77331;BMP280;66405;48.328;7.820;2023-04-02T05:50:38;99440.81;;;10.14
77331;BMP280;66405;48.328;7.820;2023-04-02T05:53:14;99448.44;;;10.16
77331;BMP280;66405;48.328;7.820;2023-04-02T05:55:50;99443.38;;;10.18
77331;BMP280;66405;48.328;7.820;2023-04-02T05:58:50;99443.66;;;10.20
77331;BMP280;66405;48.328;7.820;2023-04-02T06:01:35;99456.53;;;10.25
77331;BMP280;66405;48.328;7.820;2023-04-02T06:05:00;99452.94;;;10.28
77331;BMP280;66405;48.328;7.820;2023-04-02T06:07:14;99459.69;;;10.33
77331;BMP280;66405;48.328;7.820;2023-04-02T06:10:06;99462.72;;;10.35
77331;BMP280;66405;48.328;7.820;2023-04-02T06:15:23;99473.31;;;10.48
77331;BMP280;66405;48.328;7.820;2023-04-02T06:20:50;99479.31;;;10.61
77331;BMP280;66405;48.328;7.820;2023-04-02T06:23:46;99474.81;;;10.67
77331;BMP280;66405;48.328;7.820;2023-04-02T06:26:43;99480.66;;;10.75
77331;BMP280;66405;48.328;7.820;2023-04-02T06:29:18;99484.97;;;10.82
77331;BMP280;66405;48.328;7.820;2023-04-02T06:31:57;99486.28;;;10.86
77331;BMP280;66405;48.328;7.820;2023-04-02T06:34:29;99495.59;;;10.95
77331;BMP280;66405;48.328;7.820;2023-04-02T06:39:58;99488.81;;;11.09
77331;BMP280;66405;48.328;7.820;2023-04-02T06:42:33;99493.25;;;11.12
77331;BMP280;66405;48.328;7.820;2023-04-02T06:45:22;99499.59;;;11.18
77331;BMP280;66405;48.328;7.820;2023-04-02T06:48:14;99498.75;;;11.27
77331;BMP280;66405;48.328;7.820;2023-04-02T06:50:49;99507.78;;;11.33
77331;BMP280;66405;48.328;7.820;2023-04-02T06:53:25;99518.56;;;11.42
77331;BMP280;66405;48.328;7.820;2023-04-02T06:55:59;99508.25;;;11.56
77331;BMP280;66405;48.328;7.820;2023-04-02T06:58:29;99517.34;;;11.67
77331;BMP280;66405;48.328;7.820;2023-04-02T07:01:01;99521.22;;;11.76
77331;BMP280;66405;48.328;7.820;2023-04-02T07:03:51;99534.13;;;11.81
77331;BMP280;66405;48.328;7.820;2023-04-02T07:11:42;99525.72;;;12.03
77331;BMP280;66405;48.328;7.820;2023-04-02T07:14:33;99533.31;;;12.14
77331;BMP280;66405;48.328;7.820;2023-04-02T07:17:45;99537.31;;;12.18
77331;BMP280;66405;48.328;7.820;2023-04-02T07:20:32;99537.16;;;12.22
77331;BMP280;66405;48.328;7.820;2023-04-02T07:23:12;99544.19;;;12.29
77331;BMP280;66405;48.328;7.820;2023-04-02T07:25:58;99543.03;;;12.35
77331;BMP280;66405;48.328;7.820;2023-04-02T07:28:53;99551.56;;;12.43
77331;BMP280;66405;48.328;7.820;2023-04-02T07:31:39;99555.72;;;12.53
77331;BMP280;66405;48.328;7.820;2023-04-02T07:34:27;99550.09;;;12.57
77331;BMP280;66405;48.328;7.820;2023-04-02T07:37:00;99557.84;;;12.64
77331;BMP280;66405;48.328;7.820;2023-04-02T07:39:38;99562.16;;;12.71
77331;BMP280;66405;48.328;7.820;2023-04-02T07:42:31;99556.66;;;12.80
77331;BMP280;66405;48.328;7.820;2023-04-02T07:45:05;99560.28;;;12.92
77331;BMP280;66405;48.328;7.820;2023-04-02T07:47:39;99562.97;;;13.07
77331;BMP280;66405;48.328;7.820;2023-04-02T07:50:41;99561.13;;;13.13
77331;BMP280;66405;48.328;7.820;2023-04-02T07:53:51;99563.16;;;13.18
77331;BMP280;66405;48.328;7.820;2023-04-02T07:56:27;99568.75;;;13.30
77331;BMP280;66405;48.328;7.820;2023-04-02T07:58:58;99573.66;;;13.46
77331;BMP280;66405;48.328;7.820;2023-04-02T08:01:28;99579.53;;;13.60
77331;BMP280;66405;48.328;7.820;2023-04-02T08:04:18;99571.59;;;13.77
77331;BMP280;66405;48.328;7.820;2023-04-02T08:07:58;99584.25;;;14.00
77331;BMP280;66405;48.328;7.820;2023-04-02T08:11:03;99588.72;;;14.03
77331;BMP280;66405;48.328;7.820;2023-04-02T08:14:26;99594.69;;;14.07
77331;BMP280;66405;48.328;7.820;2023-04-02T08:17:22;99592.81;;;14.14
77331;BMP280;66405;48.328;7.820;2023-04-02T08:20:35;99601.94;;;14.16
77331;BMP280;66405;48.328;7.820;2023-04-02T08:23:36;99601.03;;;14.19
77331;BMP280;66405;48.328;7.820;2023-04-02T08:26:21;99609.22;;;14.25
77331;BMP280;66405;48.328;7.820;2023-04-02T08:29:07;99614.38;;;14.23
77331;BMP280;66405;48.328;7.820;2023-04-02T08:31:41;99615.59;;;14.22
77331;BMP280;66405;48.328;7.820;2023-04-02T08:34:35;99619.53;;;14.21
77331;BMP280;66405;48.328;7.820;2023-04-02T08:37:51;99626.69;;;14.18
77331;BMP280;66405;48.328;7.820;2023-04-02T08:40:55;99629.34;;;14.13
77331;BMP280;66405;48.328;7.820;2023-04-02T08:52:36;99644.56;;;14.04
77331;BMP280;66405;48.328;7.820;2023-04-02T08:58:47;99650.13;;;14.16
77331;BMP280;66405;48.328;7.820;2023-04-02T09:01:56;99654.38;;;14.22
77331;BMP280;66405;48.328;7.820;2023-04-02T09:04:32;99656.50;;;14.33
77331;BMP280;66405;48.328;7.820;2023-04-02T09:07:10;99658.81;;;14.40
77331;BMP280;66405;48.328;7.820;2023-04-02T09:13:49;99659.94;;;14.54
77331;BMP280;66405;48.328;7.820;2023-04-02T09:17:01;99669.88;;;14.57
77331;BMP280;66405;48.328;7.820;2023-04-02T09:36:43;99676.75;;;15.37
77331;BMP280;66405;48.328;7.820;2023-04-02T09:39:22;99683.50;;;15.47
77331;BMP280;66405;48.328;7.820;2023-04-02T09:42:34;99679.44;;;15.63
77331;BMP280;66405;48.328;7.820;2023-04-02T09:47:42;99687.44;;;15.78
77331;BMP280;66405;48.328;7.820;2023-04-02T09:54:24;99698.31;;;15.78
77331;BMP280;66405;48.328;7.820;2023-04-02T09:57:00;99696.78;;;15.72
77331;BMP280;66405;48.328;7.820;2023-04-02T09:59:27;99702.97;;;15.72
77331;BMP280;66405;48.328;7.820;2023-04-02T10:04:44;99708.34;;;16.04
77331;BMP280;66405;48.328;7.820;2023-04-02T10:07:36;99704.47;;;16.22
77331;BMP280;66405;48.328;7.820;2023-04-02T10:10:24;99716.88;;;16.29
77331;BMP280;66405;48.328;7.820;2023-04-02T10:13:15;99709.72;;;16.37
77331;BMP280;66405;48.328;7.820;2023-04-02T10:15:56;99721.91;;;16.53
77331;BMP280;66405;48.328;7.820;2023-04-02T10:18:40;99716.25;;;16.68
77331;BMP280;66405;48.328;7.820;2023-04-02T10:21:12;99724.47;;;16.85
77331;BMP280;66405;48.328;7.820;2023-04-02T10:23:39;99723.28;;;17.09
77331;BMP280;66405;48.328;7.820;2023-04-02T10:26:35;99731.44;;;17.26
77331;BMP280;66405;48.328;7.820;2023-04-02T10:39:56;99742.53;;;17.79
77331;BMP280;66405;48.328;7.820;2023-04-02T10:42:36;99747.53;;;17.69
77331;BMP280;66405;48.328;7.820;2023-04-02T10:45:23;99744.84;;;17.52
77331;BMP280;66405;48.328;7.820;2023-04-02T10:53:16;99757.72;;;17.00
77331;BMP280;66405;48.328;7.820;2023-04-02T10:55:59;99755.75;;;16.90
77331;BMP280;66405;48.328;7.820;2023-04-02T10:58:30;99757.66;;;16.61
77331;BMP280;66405;48.328;7.820;2023-04-02T11:01:07;99765.56;;;16.59
77331;BMP280;66405;48.328;7.820;2023-04-02T11:03:41;99765.09;;;16.66
77331;BMP280;66405;48.328;7.820;2023-04-02T11:06:17;99772.28;;;16.58
77331;BMP280;66405;48.328;7.820;2023-04-02T11:08:46;99766.56;;;16.50
77331;BMP280;66405;48.328;7.820;2023-04-02T11:11:25;99767.75;;;16.43
77331;BMP280;66405;48.328;7.820;2023-04-02T11:16:21;99773.53;;;16.62
77331;BMP280;66405;48.328;7.820;2023-04-02T11:22:01;99773.66;;;17.13
77331;BMP280;66405;48.328;7.820;2023-04-02T11:29:41;99782.31;;;17.80
77331;BMP280;66405;48.328;7.820;2023-04-02T11:42:48;99791.81;;;18.85
77331;BMP280;66405;48.328;7.820;2023-04-02T11:50:45;99801.53;;;18.27
77331;BMP280;66405;48.328;7.820;2023-04-02T11:55:45;99806.31;;;18.21
77331;BMP280;66405;48.328;7.820;2023-04-02T12:11:45;99813.16;;;18.50
77331;BMP280;66405;48.328;7.820;2023-04-02T12:14:36;99809.41;;;18.53
77331;BMP280;66405;48.328;7.820;2023-04-02T12:17:37;99814.94;;;18.36
77331;BMP280;66405;48.328;7.820;2023-04-02T12:22:44;99816.44;;;18.32
77331;BMP280;66405;48.328;7.820;2023-04-02T12:27:43;99819.97;;;18.26
77331;BMP280;66405;48.328;7.820;2023-04-02T12:30:21;99822.44;;;18.30
77331;BMP280;66405;48.328;7.820;2023-04-02T12:32:48;99823.91;;;18.42
77331;BMP280;66405;48.328;7.820;2023-04-02T12:35:32;99819.59;;;18.53
77331;BMP280;66405;48.328;7.820;2023-04-02T12:37:59;99825.53;;;18.62
77331;BMP280;66405;48.328;7.820;2023-04-02T12:40:27;99826.47;;;18.71
77331;BMP280;66405;48.328;7.820;2023-04-02T12:42:54;99825.44;;;18.79
77331;BMP280;66405;48.328;7.820;2023-04-02T12:45:23;99836.94;;;18.72
77331;BMP280;66405;48.328;7.820;2023-04-02T12:47:49;99837.41;;;18.76
77331;BMP280;66405;48.328;7.820;2023-04-02T12:50:16;99834.66;;;18.82
77331;BMP280;66405;48.328;7.820;2023-04-02T12:52:44;99836.88;;;18.83
77331;BMP280;66405;48.328;7.820;2023-04-02T12:55:22;99846.56;;;18.85
77331;BMP280;66405;48.328;7.820;2023-04-02T12:57:56;99839.38;;;18.81
77331;BMP280;66405;48.328;7.820;2023-04-02T13:02:49;99845.03;;;18.89
77331;BMP280;66405;48.328;7.820;2023-04-02T13:05:53;99850.00;;;18.91
77331;BMP280;66405;48.328;7.820;2023-04-02T13:08:27;99848.78;;;18.92
77331;BMP280;66405;48.328;7.820;2023-04-02T13:10:58;99854.28;;;18.86
77331;BMP280;66405;48.328;7.820;2023-04-02T13:13:35;99850.63;;;18.72
77331;BMP280;66405;48.328;7.820;2023-04-02T13:18:36;99856.78;;;18.31
77331;BMP280;66405;48.328;7.820;2023-04-02T13:21:05;99865.50;;;18.18
77331;BMP280;66405;48.328;7.820;2023-04-02T13:23:33;99859.06;;;18.04
77331;BMP280;66405;48.328;7.820;2023-04-02T13:26:20;99860.34;;;17.92
77331;BMP280;66405;48.328;7.820;2023-04-02T13:31:39;99864.06;;;17.61
77331;BMP280;66405;48.328;7.820;2023-04-02T13:34:04;99869.25;;;17.53
77331;BMP280;66405;48.328;7.820;2023-04-02T13:36:30;99866.03;;;17.49
77331;BMP280;66405;48.328;7.820;2023-04-02T13:38:56;99867.78;;;17.40
77331;BMP280;66405;48.328;7.820;2023-04-02T13:41:24;99876.72;;;17.35
77331;BMP280;66405;48.328;7.820;2023-04-02T13:43:56;99871.25;;;17.35
77331;BMP280;66405;48.328;7.820;2023-04-02T13:46:26;99873.22;;;17.35
77331;BMP280;66405;48.328;7.820;2023-04-02T13:48:53;99868.75;;;17.32
77331;BMP280;66405;48.328;7.820;2023-04-02T13:51:21;99877.94;;;17.34
77331;BMP280;66405;48.328;7.820;2023-04-02T13:53:52;99879.19;;;17.33
77331;BMP280;66405;48.328;7.820;2023-04-02T13:56:18;99882.91;;;17.36
77331;BMP280;66405;48.328;7.820;2023-04-02T13:58:45;99879.94;;;17.39
77331;BMP280;66405;48.328;7.820;2023-04-02T14:01:11;99881.69;;;17.48
77331;BMP280;66405;48.328;7.820;2023-04-02T14:03:38;99880.44;;;17.49
77331;BMP280;66405;48.328;7.820;2023-04-02T14:14:46;99891.63;;;17.85
77331;BMP280;66405;48.328;7.820;2023-04-02T14:23:13;99896.84;;;17.89
77331;BMP280;66405;48.328;7.820;2023-04-02T14:31:24;99906.75;;;17.52
77331;BMP280;66405;48.328;7.820;2023-04-02T14:36:52;99913.44;;;17.29
77331;BMP280;66405;48.328;7.820;2023-04-02T14:39:43;99915.38;;;17.17
77331;BMP280;66405;48.328;7.820;2023-04-02T14:42:16;99921.03;;;16.96
77331;BMP280;66405;48.328;7.820;2023-04-02T14:44:50;99923.16;;;16.81
77331;BMP280;66405;48.328;7.820;2023-04-02T14:47:22;99921.63;;;16.68
77331;BMP280;66405;48.328;7.820;2023-04-02T14:49:56;99925.31;;;16.60
77331;BMP280;66405;48.328;7.820;2023-04-02T14:52:25;99926.28;;;16.51
77331;BMP280;66405;48.328;7.820;2023-04-02T14:55:07;99932.88;;;16.39
77331;BMP280;66405;48.328;7.820;2023-04-02T14:57:38;99930.38;;;16.35
77331;BMP280;66405;48.328;7.820;2023-04-02T15:02:50;99926.59;;;16.27
77331;BMP280;66405;48.328;7.820;2023-04-02T15:08:17;99932.69;;;16.16
77331;BMP280;66405;48.328;7.820;2023-04-02T15:11:11;99939.31;;;16.09
77331;BMP280;66405;48.328;7.820;2023-04-02T15:13:53;99940.56;;;16.03
77331;BMP280;66405;48.328;7.820;2023-04-02T15:16:24;99935.25;;;15.93
77331;BMP280;66405;48.328;7.820;2023-04-02T15:18:52;99938.84;;;15.79
77331;BMP280;66405;48.328;7.820;2023-04-02T15:29:48;99952.16;;;15.51
77331;BMP280;66405;48.328;7.820;2023-04-02T15:40:31;99961.72;;;15.20
77331;BMP280;66405;48.328;7.820;2023-04-02T15:43:09;99962.66;;;15.17
77331;BMP280;66405;48.328;7.820;2023-04-02T15:45:58;99962.84;;;15.13
77331;BMP280;66405;48.328;7.820;2023-04-02T15:48:35;99960.34;;;15.09
77331;BMP280;66405;48.328;7.820;2023-04-02T16:01:58;99973.88;;;15.24
77331;BMP280;66405;48.328;7.820;2023-04-02T16:04:59;99975.91;;;15.29
77331;BMP280;66405;48.328;7.820;2023-04-02T16:10:18;99985.09;;;15.32
77331;BMP280;66405;48.328;7.820;2023-04-02T16:12:49;99993.22;;;15.26
77331;BMP280;66405;48.328;7.820;2023-04-02T16:15:21;99995.34;;;15.17
77331;BMP280;66405;48.328;7.820;2023-04-02T16:18:01;100007.34;;;15.10
77331;BMP280;66405;48.328;7.820;2023-04-02T16:20:33;100006.25;;;15.02
77331;BMP280;66405;48.328;7.820;2023-04-02T16:23:04;100014.81;;;14.94
77331;BMP280;66405;48.328;7.820;2023-04-02T16:31:12;100023.09;;;14.70
77331;BMP280;66405;48.328;7.820;2023-04-02T16:33:52;100024.34;;;14.54
77331;BMP280;66405;48.328;7.820;2023-04-02T16:36:34;100026.97;;;14.49
77331;BMP280;66405;48.328;7.820;2023-04-02T16:47:16;100043.50;;;14.06
77331;BMP280;66405;48.328;7.820;2023-04-02T16:50:01;100049.00;;;13.97
77331;BMP280;66405;48.328;7.820;2023-04-02T16:52:35;100050.94;;;13.81
77331;BMP280;66405;48.328;7.820;2023-04-02T16:55:41;100055.66;;;13.71
77331;BMP280;66405;48.328;7.820;2023-04-02T17:01:05;100066.94;;;13.55
77331;BMP280;66405;48.328;7.820;2023-04-02T17:03:49;100074.34;;;13.45
77331;BMP280;66405;48.328;7.820;2023-04-02T17:06:40;100076.97;;;13.30
77331;BMP280;66405;48.328;7.820;2023-04-02T17:09:18;100083.97;;;13.22
77331;BMP280;66405;48.328;7.820;2023-04-02T17:14:32;100090.81;;;13.08
77331;BMP280;66405;48.328;7.820;2023-04-02T17:17:03;100095.94;;;13.06
77331;BMP280;66405;48.328;7.820;2023-04-02T17:19:31;100109.38;;;13.00
77331;BMP280;66405;48.328;7.820;2023-04-02T17:22:02;100108.16;;;12.92
77331;BMP280;66405;48.328;7.820;2023-04-02T17:24:43;100121.72;;;12.83
77331;BMP280;66405;48.328;7.820;2023-04-02T17:27:21;100113.91;;;12.76
77331;BMP280;66405;48.328;7.820;2023-04-02T17:29:51;100125.56;;;12.67
77331;BMP280;66405;48.328;7.820;2023-04-02T17:32:29;100121.63;;;12.59
77331;BMP280;66405;48.328;7.820;2023-04-02T18:03:37;100177.69;;;11.93
77331;BMP280;66405;48.328;7.820;2023-04-02T18:06:37;100176.28;;;11.89
77331;BMP280;66405;48.328;7.820;2023-04-02T18:11:55;100181.06;;;11.75
77331;BMP280;66405;48.328;7.820;2023-04-02T18:20:21;100196.75;;;11.58
77331;BMP280;66405;48.328;7.820;2023-04-02T18:26:13;100209.63;;;11.45
77331;BMP280;66405;48.328;7.820;2023-04-02T18:37:55;100237.19;;;11.30
77331;BMP280;66405;48.328;7.820;2023-04-02T18:43:49;100242.22;;;11.19
77331;BMP280;66405;48.328;7.820;2023-04-02T18:51:45;100252.00;;;11.03
77331;BMP280;66405;48.328;7.820;2023-04-02T18:57:17;100263.81;;;10.97
77331;BMP280;66405;48.328;7.820;2023-04-02T19:05:21;100280.50;;;10.82
77331;BMP280;66405;48.328;7.820;2023-04-02T19:07:52;100284.84;;;10.80
77331;BMP280;66405;48.328;7.820;2023-04-02T19:10:32;100281.94;;;10.74
77331;BMP280;66405;48.328;7.820;2023-04-02T19:12:58;100294.78;;;10.70
77331;BMP280;66405;48.328;7.820;2023-04-02T19:15:37;100300.66;;;10.68
77331;BMP280;66405;48.328;7.820;2023-04-02T19:21:33;100303.56;;;10.61
77331;BMP280;66405;48.328;7.820;2023-04-02T19:26:37;100309.28;;;10.50
77331;BMP280;66405;48.328;7.820;2023-04-02T19:35:34;100323.97;;;10.37
77331;BMP280;66405;48.328;7.820;2023-04-02T19:38:42;100327.88;;;10.35
77331;BMP280;66405;48.328;7.820;2023-04-02T19:43:37;100336.53;;;10.30
77331;BMP280;66405;48.328;7.820;2023-04-02T19:46:03;100341.16;;;10.30
77331;BMP280;66405;48.328;7.820;2023-04-02T19:48:39;100343.63;;;10.24
77331;BMP280;66405;48.328;7.820;2023-04-02T19:51:06;100343.72;;;10.21
77331;BMP280;66405;48.328;7.820;2023-04-02T19:53:32;100360.06;;;10.17
77331;BMP280;66405;48.328;7.820;2023-04-02T19:55:57;100362.84;;;10.13
77331;BMP280;66405;48.328;7.820;2023-04-02T19:58:27;100363.78;;;10.07
77331;BMP280;66405;48.328;7.820;2023-04-02T20:00:53;100364.31;;;10.01
77331;BMP280;66405;48.328;7.820;2023-04-02T20:03:18;100362.91;;;9.97
77331;BMP280;66405;48.328;7.820;2023-04-02T20:05:48;100368.72;;;9.95
77331;BMP280;66405;48.328;7.820;2023-04-02T20:08:13;100374.53;;;9.94
77331;BMP280;66405;48.328;7.820;2023-04-02T20:10:40;100376.94;;;9.92
77331;BMP280;66405;48.328;7.820;2023-04-02T20:13:08;100381.66;;;9.88
77331;BMP280;66405;48.328;7.820;2023-04-02T20:15:33;100382.50;;;9.84
77331;BMP280;66405;48.328;7.820;2023-04-02T20:17:59;100378.75;;;9.82
77331;BMP280;66405;48.328;7.820;2023-04-02T20:20:25;100390.38;;;9.79
77331;BMP280;66405;48.328;7.820;2023-04-02T20:22:51;100391.97;;;9.76
77331;BMP280;66405;48.328;7.820;2023-04-02T20:25:16;100394.31;;;9.74
77331;BMP280;66405;48.328;7.820;2023-04-02T20:27:42;100396.72;;;9.72
77331;BMP280;66405;48.328;7.820;2023-04-02T20:30:08;100399.09;;;9.70
77331;BMP280;66405;48.328;7.820;2023-04-02T20:32:33;100402.19;;;9.68
77331;BMP280;66405;48.328;7.820;2023-04-02T20:35:00;100406.84;;;9.68
77331;BMP280;66405;48.328;7.820;2023-04-02T20:37:25;100406.50;;;9.66
77331;BMP280;66405;48.328;7.820;2023-04-02T20:39:51;100402.25;;;9.65
77331;BMP280;66405;48.328;7.820;2023-04-02T20:42:17;100406.91;;;9.64
77331;BMP280;66405;48.328;7.820;2023-04-02T20:44:42;100417.72;;;9.64
77331;BMP280;66405;48.328;7.820;2023-04-02T20:47:08;100416.22;;;9.63
77331;BMP280;66405;48.328;7.820;2023-04-02T20:49:33;100411.22;;;9.62
77331;BMP280;66405;48.328;7.820;2023-04-02T20:51:59;100420.09;;;9.62
77331;BMP280;66405;48.328;7.820;2023-04-02T20:54:25;100424.41;;;9.60
77331;BMP280;66405;48.328;7.820;2023-04-02T20:56:50;100422.88;;;9.59
77331;BMP280;66405;48.328;7.820;2023-04-02T20:59:16;100424.91;;;9.55
77331;BMP280;66405;48.328;7.820;2023-04-02T21:01:41;100425.41;;;9.49